KGCK/GCK METAR and TAF weather

Enter ICAO airport designator
Station Type Date Time Source
KGCK METAR 2019/06/16 04:54 UTC NOAA

KGCK 160454Z AUTO 05007KT 10SM FEW120 21/16 A2993 RMK AO2 SLP103 T02060156 $


Station Type Date Time Source
KGCK Decoded METAR 2019/06/16 04:54 UTC NOAA

GARDEN CITY REGIONAL AIRPORT, KS, United States (KGCK) 37-55N 100-43W 877M
Jun 16, 2019 - 12:54 AM EDT / 2019.06.16 0454 UTC
Wind: from the NE (050 degrees) at 8 MPH (7 KT):0
Visibility: 10 mile(s):0
Sky conditions: mostly clear
Temperature: 69.1 F (20.6 C)
Dew Point: 60.1 F (15.6 C)
Relative Humidity: 73%
Pressure (altimeter): 29.93 in. Hg (1013 hPa)
ob: KGCK 160454Z AUTO 05007KT 10SM FEW120 21/16 A2993 RMK AO2 SLP103 T02060156
cycle: 5

Station Type Date Time Source
KGCK TAF 2019/06/16 04:06 UTC NOAA

TAF
AMD KGCK 160405Z 1604/1624 03008KT P6SM SCT250

Example: see airport list